Time;durP1;ratioP1;P1;durP2;ratioP2;P2;SDS_P1;SDS_P2;PMS_P1;PMS_P2;Temp;Humidity;BMP_temperature;BMP_pressure;BME280_temperature;BME280_humidity;BME280_pressure;Samples;Min_cycle;Max_cycle;Signal;HPM_P1;HPM_P2
2021/05/14 00:00:11;;;;;;;2.20;1.50;;;10.60;82.10;;;9.05;81.84;95227.56;4991999;28;20038;-71
2021/05/14 00:02:39;;;;;;;4.47;1.95;;;10.70;82.30;;;9.02;81.48;95225.31;5006767;28;20161;-72
2021/05/14 00:05:07;;;;;;;2.50;1.90;;;10.60;82.10;;;9.03;81.52;95226.13;4991191;28;20042;-71
2021/05/14 00:07:32;;;;;;;2.30;1.50;;;10.60;82.40;;;9.00;81.69;95218.66;4991814;28;20030;-72
2021/05/14 00:09:58;;;;;;;2.75;1.80;;;10.60;82.40;;;8.99;81.88;95217.03;5007678;28;20080;-72
2021/05/14 00:12:24;;;;;;;2.78;1.85;;;10.60;82.00;;;8.96;81.85;95220.88;5007953;28;20030;-72
2021/05/14 00:14:50;;;;;;;3.45;1.90;;;10.50;82.30;;;8.93;81.41;95216.03;5010378;28;20065;-72
2021/05/14 00:17:15;;;;;;;2.33;1.65;;;10.60;82.40;;;8.93;82.35;95223.91;5011287;28;20061;-71
2021/05/14 00:19:41;;;;;;;3.25;2.00;;;10.60;82.50;;;8.90;81.87;95221.69;5011183;28;20034;-72
2021/05/14 00:22:07;;;;;;;3.13;2.05;;;10.50;82.30;;;8.87;82.09;95222.09;4995220;28;20120;-71
2021/05/14 00:24:33;;;;;;;4.15;2.53;;;10.50;82.40;;;8.84;81.66;95217.25;4995576;28;20109;-73
2021/05/14 00:26:58;;;;;;;4.53;2.10;;;10.50;82.60;;;8.79;82.02;95214.41;4997213;28;20081;-71
2021/05/14 00:29:24;;;;;;;7.88;2.10;;;10.40;82.40;;;8.76;82.43;95214.78;4977740;28;20037;-72
2021/05/14 00:31:50;;;;;;;3.53;1.77;;;10.30;82.40;;;8.73;81.50;95217.81;4994660;28;20883;-72
2021/05/14 00:34:16;;;;;;;5.45;2.60;;;10.30;82.70;;;8.72;81.65;95213.59;5006631;28;20037;-72
2021/05/14 00:36:41;;;;;;;2.90;1.70;;;10.40;82.90;;;8.70;81.67;95221.66;4991043;28;20065;-71
2021/05/14 00:39:07;;;;;;;3.92;2.00;;;10.30;82.70;;;8.69;82.18;95213.97;4994846;28;20115;-71
2021/05/14 00:41:33;;;;;;;2.40;1.67;;;10.30;82.80;;;8.68;82.15;95215.81;5010963;28;20110;-71
2021/05/14 00:43:59;;;;;;;3.15;1.80;;;10.30;82.80;;;8.68;81.74;95217.63;5010838;28;20081;-71
2021/05/14 00:46:25;;;;;;;4.25;1.90;;;10.40;82.70;;;8.66;82.25;95215.19;5027693;28;20509;-71
2021/05/14 00:48:50;;;;;;;3.67;2.05;;;10.30;82.80;;;8.64;81.70;95213.78;5026473;28;20451;-72
2021/05/14 00:51:16;;;;;;;3.58;2.00;;;10.20;83.00;;;8.63;81.79;95220.03;5027284;28;20108;-71
2021/05/14 00:53:42;;;;;;;1.85;1.67;;;10.20;83.10;;;8.60;82.15;95213.38;4994610;28;20046;-71
2021/05/14 00:56:08;;;;;;;4.53;1.80;;;10.20;83.00;;;8.59;81.57;95217.78;5027439;28;20045;-71
2021/05/14 00:58:33;;;;;;;3.10;1.80;;;10.20;82.90;;;8.58;82.57;95218.78;4994251;28;20465;-71
2021/05/14 01:00:59;;;;;;;3.58;1.80;;;10.20;82.90;;;8.56;82.13;95215.56;4994722;28;20386;-71
2021/05/14 01:03:25;;;;;;;2.90;1.90;;;10.20;82.90;;;8.55;82.26;95213.94;5009706;28;20559;-71
2021/05/14 01:05:50;;;;;;;2.53;1.83;;;10.20;82.50;;;8.54;82.32;95220.19;4994188;28;20133;-70
2021/05/14 01:08:16;;;;;;;3.83;1.92;;;10.20;82.30;;;8.53;81.89;95215.94;5010417;28;20077;-71
2021/05/14 01:10:42;;;;;;;3.17;1.83;;;10.10;82.40;;;8.48;81.93;95218.38;4994228;28;20066;-71
2021/05/14 01:13:08;;;;;;;3.10;1.80;;;10.10;82.70;;;8.49;82.17;95219.16;5010354;28;20386;-71
2021/05/14 01:15:34;;;;;;;3.95;1.98;;;10.20;82.60;;;8.48;82.04;95223.59;5009927;28;20490;-71
2021/05/14 01:17:59;;;;;;;3.58;2.33;;;10.10;82.20;;;8.48;81.97;95223.59;4994128;28;20026;-71
2021/05/14 01:20:28;;;;;;;4.70;2.17;;;10.20;82.50;;;8.48;82.54;95223.59;4978034;28;20030;-71
2021/05/14 01:22:53;;;;;;;3.60;2.00;;;10.20;82.50;;;8.45;81.86;95218.75;5010102;28;20037;-71
2021/05/14 01:25:19;;;;;;;3.78;1.88;;;10.20;82.30;;;8.44;82.27;95227.63;4993037;28;20515;-71
2021/05/14 01:27:45;;;;;;;3.40;1.70;;;10.10;82.30;;;8.41;81.98;95228.03;5010302;28;20034;-70
2021/05/14 01:30:12;;;;;;;3.25;1.85;;;10.10;82.60;;;8.39;81.81;95224.78;5010107;28;20089;-71
2021/05/14 01:32:37;;;;;;;1.95;1.52;;;10.10;82.50;;;8.36;82.06;95230.41;4993925;28;20036;-71
2021/05/14 01:35:04;;;;;;;3.25;1.60;;;10.00;82.30;;;8.34;81.91;95221.94;4993890;28;20057;-71
2021/05/14 01:37:29;;;;;;;4.50;1.95;;;10.00;82.40;;;8.32;82.36;95226.53;5027404;28;20033;-71
2021/05/14 01:39:55;;;;;;;3.42;1.90;;;10.00;82.60;;;8.29;82.35;95224.31;5011186;28;20512;-71
2021/05/14 01:42:21;;;;;;;3.20;2.08;;;9.90;82.90;;;8.27;81.87;95223.69;4961553;28;20062;-72
2021/05/14 01:44:47;;;;;;;2.92;2.10;;;10.00;82.50;;;8.26;82.44;95224.72;5010107;28;20402;-71
2021/05/14 01:47:17;;;;;;;3.13;1.85;;;10.00;82.30;;;8.25;82.64;95228.34;5006729;28;20054;-71
2021/05/14 01:49:42;;;;;;;3.23;2.10;;;10.00;82.20;;;8.23;82.35;95232.97;4992294;28;20048;-71
2021/05/14 01:52:08;;;;;;;2.30;1.80;;;10.00;82.50;;;8.23;81.97;95235.59;4993368;28;20038;-71
2021/05/14 01:54:34;;;;;;;2.55;1.58;;;9.90;82.30;;;8.19;81.98;95229.13;4993766;28;20036;-72
2021/05/14 01:56:59;;;;;;;3.15;1.80;;;9.90;82.20;;;8.20;82.35;95230.75;4993319;28;20046;-71
2021/05/14 01:59:25;;;;;;;3.78;1.60;;;9.90;82.20;;;8.19;82.34;95231.75;4992951;28;20053;-72
2021/05/14 02:01:51;;;;;;;3.67;1.70;;;9.90;82.10;;;8.15;81.86;95220.03;5008339;28;20053;-71
2021/05/14 02:04:17;;;;;;;3.47;1.80;;;9.80;81.80;;;8.17;82.32;95233.75;5008526;28;20030;-71
2021/05/14 02:06:42;;;;;;;4.30;1.80;;;9.80;81.80;;;8.14;82.14;95231.50;5009127;28;20038;-71
2021/05/14 02:09:08;;;;;;;3.22;2.25;;;9.80;82.00;;;8.14;81.71;95231.50;4993615;28;20054;-71
2021/05/14 02:11:34;;;;;;;8.65;5.90;;;9.80;81.90;;;8.15;81.73;95222.66;4992705;28;20196;-71
2021/05/14 02:14:00;;;;;;;9.20;6.93;;;9.80;81.90;;;8.13;81.58;95230.69;5009547;28;20084;-71
2021/05/14 02:16:25;;;;;;;7.15;4.43;;;9.80;81.70;;;8.10;81.62;95232.88;4993196;28;20030;-72
2021/05/14 02:18:51;;;;;;;10.30;6.15;;;9.70;81.90;;;8.08;81.44;95227.03;4993182;28;20065;-71
2021/05/14 02:21:17;;;;;;;6.20;4.25;;;9.80;81.50;;;8.07;81.40;95231.47;4992198;28;20111;-72
2021/05/14 02:23:43;;;;;;;4.60;1.90;;;9.70;81.20;;;8.03;81.59;95229.44;5009280;28;20481;-71
2021/05/14 02:26:08;;;;;;;3.15;1.70;;;9.60;81.10;;;7.97;80.74;95226.59;5009282;28;20107;-71
2021/05/14 02:28:34;;;;;;;2.83;1.48;;;9.60;81.20;;;7.95;81.07;95231.22;4992957;28;20034;-72
2021/05/14 02:31:01;;;;;;;2.10;1.35;;;9.60;81.20;;;7.90;81.13;95230.97;5008692;28;20049;-71
2021/05/14 02:33:27;;;;;;;3.38;1.60;;;9.50;81.00;;;7.86;80.98;95235.00;5008315;28;20523;-71
2021/05/14 02:35:52;;;;;;;3.28;1.70;;;9.50;81.20;;;7.82;80.87;95228.53;4992201;28;20041;-72
2021/05/14 02:38:18;;;;;;;6.70;4.53;;;9.40;81.20;;;7.78;81.05;95232.53;4991882;28;20488;-72
2021/05/14 02:40:44;;;;;;;6.50;4.88;;;9.40;81.60;;;7.76;80.91;95234.53;5008775;28;20044;-71
2021/05/14 02:43:09;;;;;;;5.75;2.95;;;9.40;81.20;;;7.70;81.43;95234.50;5009202;28;20042;-72
2021/05/14 02:45:35;;;;;;;3.63;2.10;;;9.40;81.50;;;7.65;81.00;95230.63;5009113;28;20567;-71
2021/05/14 02:48:01;;;;;;;2.30;1.50;;;9.30;81.50;;;7.64;80.73;95226.41;5008555;28;20587;-71
2021/05/14 02:50:27;;;;;;;4.00;1.70;;;9.30;81.40;;;7.61;81.34;95228.59;4991949;28;20120;-71
2021/05/14 02:52:52;;;;;;;2.28;1.60;;;9.30;81.10;;;7.59;80.83;95227.97;5008796;28;20533;-72
2021/05/14 02:55:18;;;;;;;3.38;1.60;;;9.30;80.90;;;7.54;80.84;95222.53;4992657;28;20036;-72
2021/05/14 02:57:44;;;;;;;1.88;1.52;;;9.10;81.00;;;7.51;80.74;95223.72;4992631;28;20450;-72
2021/05/14 03:00:11;;;;;;;2.25;1.42;;;9.20;81.10;;;7.47;80.68;95227.72;5008539;28;20034;-71
2021/05/14 03:02:37;;;;;;;3.15;1.60;;;9.00;81.00;;;7.45;80.79;95226.25;5008880;28;20044;-71
2021/05/14 03:05:03;;;;;;;5.95;3.78;;;9.00;81.00;;;7.42;80.41;95230.06;5008556;28;20129;-71
2021/05/14 03:07:29;;;;;;;5.07;3.65;;;9.00;81.10;;;7.40;80.64;95228.66;4991312;28;20034;-72
2021/05/14 03:09:55;;;;;;;2.38;1.70;;;9.00;81.00;;;7.34;80.64;95232.84;4992432;28;20064;-71
2021/05/14 03:12:21;;;;;;;2.75;1.63;;;8.90;80.90;;;7.29;80.96;95233.41;5010326;28;20026;-71
2021/05/14 03:14:46;;;;;;;3.65;1.65;;;8.90;81.30;;;7.22;80.88;95235.16;4992255;28;20113;-71
2021/05/14 03:17:12;;;;;;;3.28;1.63;;;8.80;81.60;;;7.17;80.94;95234.09;5008208;28;20041;-71
2021/05/14 03:19:38;;;;;;;2.80;1.42;;;8.70;81.50;;;7.15;80.83;95230.88;5008664;28;20100;-71
2021/05/14 03:22:04;;;;;;;2.15;1.48;;;8.80;81.10;;;7.11;80.59;95246.13;5009680;28;20037;-71
2021/05/14 03:24:29;;;;;;;3.10;1.80;;;8.70;81.30;;;7.06;80.26;95244.09;5008630;28;20672;-72
2021/05/14 03:26:55;;;;;;;2.35;1.50;;;8.70;81.40;;;7.01;80.98;95250.84;4992382;28;20033;-71
2021/05/14 03:29:21;;;;;;;2.20;1.50;;;8.60;81.50;;;6.99;81.15;95250.25;5007365;28;20481;-71
2021/05/14 03:31:47;;;;;;;2.60;1.55;;;8.60;81.20;;;6.96;80.46;95255.84;5008399;28;20057;-72
2021/05/14 03:34:13;;;;;;;5.43;1.50;;;8.60;81.30;;;6.90;81.24;95254.00;5009601;28;20045;-71
2021/05/14 03:36:38;;;;;;;2.42;1.63;;;8.50;81.60;;;6.88;81.20;95255.97;4996299;28;20111;-71
2021/05/14 03:39:08;;;;;;;2.88;1.52;;;8.50;81.70;;;6.84;80.36;95254.75;5008627;28;20065;-72
2021/05/14 03:41:46;;;;;;;2.22;1.58;;;8.40;81.50;;;6.80;81.15;95254.31;5007662;28;20172;-72
2021/05/14 03:44:11;;;;;;;4.72;1.75;;;8.40;81.80;;;6.75;80.86;95252.22;5008766;28;20041;-71
2021/05/14 03:46:37;;;;;;;2.53;1.70;;;8.40;82.00;;;6.77;81.12;95254.66;4991882;28;20034;-72
2021/05/14 03:49:03;;;;;;;3.50;1.63;;;8.50;81.30;;;6.71;80.75;95253.59;4977305;28;20055;-71
2021/05/14 03:51:29;;;;;;;2.10;1.70;;;8.30;81.40;;;6.67;81.02;95251.53;4992313;28;20030;-71
2021/05/14 03:53:55;;;;;;;5.25;1.58;;;8.30;81.80;;;6.63;80.96;95251.13;5010215;28;20031;-72
2021/05/14 03:56:21;;;;;;;4.53;2.33;;;8.20;81.60;;;6.59;80.88;95255.09;4995686;28;20516;-72
2021/05/14 03:58:46;;;;;;;4.25;2.88;;;8.20;82.00;;;6.55;80.66;95255.63;5012169;28;20096;-71
2021/05/14 04:01:12;;;;;;;6.00;2.67;;;8.10;82.10;;;6.53;80.92;95257.63;4978238;28;20037;-71
2021/05/14 04:03:38;;;;;;;4.60;2.70;;;8.10;82.20;;;6.48;80.78;95255.56;5011985;28;20061;-71
2021/05/14 04:06:03;;;;;;;4.22;2.40;;;8.10;82.30;;;6.48;81.77;95259.97;5008834;28;20037;-66
2021/05/14 04:08:29;;;;;;;4.40;2.17;;;8.10;82.20;;;6.43;81.52;95252.69;5009081;28;20096;-64
2021/05/14 04:11:22;;;;;;;3.70;2.40;;;8.00;82.40;;;6.41;81.15;95259.91;5020210;28;20044;-65
2021/05/14 04:16:32;;;;;;;4.78;2.60;;;8.10;82.40;;;6.39;81.92;95252.25;5007367;28;20167;-65
2021/05/14 04:18:58;;;;;;;4.13;2.22;;;8.10;82.40;;;6.40;80.88;95247.84;5011182;28;20026;-72
2021/05/14 04:21:23;;;;;;;2.70;1.48;;;8.10;81.90;;;6.40;80.95;95247.84;5009718;28;20041;-72
2021/05/14 04:23:49;;;;;;;2.72;1.58;;;8.10;82.20;;;6.41;81.42;95239.00;5012670;28;20038;-71
2021/05/14 04:26:15;;;;;;;3.38;2.20;;;8.10;81.90;;;6.43;81.45;95244.84;5011647;28;20464;-72
2021/05/14 04:28:41;;;;;;;4.53;2.67;;;8.20;81.90;;;6.44;81.78;95252.50;4994656;28;20141;-72
2021/05/14 04:31:06;;;;;;;3.88;1.60;;;8.20;81.40;;;6.45;81.58;95237.66;4975498;28;20062;-73
2021/05/14 04:33:32;;;;;;;2.72;1.60;;;8.20;81.10;;;6.45;81.20;95255.94;5007004;28;20087;-72
2021/05/14 04:35:58;;;;;;;2.72;1.67;;;8.20;81.30;;;6.48;81.34;95255.56;5010988;28;20048;-72
2021/05/14 04:38:24;;;;;;;2.97;1.70;;;8.30;81.30;;;6.50;81.07;95258.78;5012710;28;20501;-72
2021/05/14 04:40:49;;;;;;;3.38;1.80;;;8.20;81.20;;;6.51;81.88;95255.19;4991268;28;20053;-72
2021/05/14 04:43:15;;;;;;;2.80;1.45;;;8.30;81.10;;;6.51;81.68;95247.34;5011355;28;20030;-72
2021/05/14 04:45:41;;;;;;;3.33;1.77;;;8.30;81.30;;;6.54;80.83;95254.81;4994939;28;20050;-71
2021/05/14 04:48:10;;;;;;;3.50;1.50;;;8.30;80.90;;;6.57;81.37;95253.66;5012132;28;20081;-71
2021/05/14 04:50:37;;;;;;;3.17;1.60;;;8.40;80.80;;;6.58;81.14;95250.88;4994322;28;20046;-71
2021/05/14 04:53:06;;;;;;;2.83;1.70;;;8.40;81.10;;;6.62;80.95;95257.34;5010989;28;20065;-71
2021/05/14 04:55:32;;;;;;;4.35;1.70;;;8.40;81.30;;;6.66;80.91;95248.13;4992551;28;20494;-71
2021/05/14 04:57:58;;;;;;;3.42;1.80;;;8.50;81.20;;;6.71;82.15;95250.97;4996658;28;20141;-71
2021/05/14 05:00:24;;;;;;;2.80;1.70;;;8.60;81.30;;;6.78;81.81;95255.47;5009534;28;20030;-71
2021/05/14 05:02:49;;;;;;;2.83;1.42;;;8.60;80.80;;;6.80;81.11;95248.28;5010487;28;20742;-72
2021/05/14 05:05:15;;;;;;;2.00;1.40;;;8.60;80.50;;;6.84;81.48;95241.66;5009968;28;20050;-72
2021/05/14 05:07:41;;;;;;;3.45;1.23;;;8.60;80.40;;;6.86;81.07;95243.09;4994223;28;20034;-71
2021/05/14 05:10:07;;;;;;;1.70;1.30;;;8.60;80.50;;;6.88;81.24;95245.53;4993946;28;20139;-72
2021/05/14 05:12:33;;;;;;;3.78;1.60;;;8.70;80.30;;;6.93;80.97;95251.00;5010130;28;20033;-72
2021/05/14 05:14:59;;;;;;;3.08;1.52;;;8.80;80.50;;;7.00;81.04;95254.47;4994758;28;20030;-72
2021/05/14 05:17:24;;;;;;;2.30;1.35;;;8.90;80.40;;;7.05;80.59;95252.94;5010082;28;20066;-72
2021/05/14 05:19:51;;;;;;;2.58;1.50;;;9.00;80.20;;;7.11;81.16;95251.38;4993685;28;20430;-72
2021/05/14 05:22:17;;;;;;;3.72;1.88;;;9.10;80.40;;;7.22;81.29;95258.69;5009960;28;20041;-66
2021/05/14 05:24:43;;;;;;;4.47;2.10;;;9.20;80.00;;;7.29;81.42;95254.34;5002224;28;20026;-67
2021/05/14 05:27:08;;;;;;;2.67;1.40;;;9.30;80.10;;;7.38;81.38;95247.16;5007798;28;20107;-68
2021/05/14 05:29:39;;;;;;;2.03;1.42;;;9.40;79.00;;;7.48;81.11;95257.31;5012708;28;20113;-69
2021/05/14 05:32:05;;;;;;;4.15;1.63;;;9.50;78.10;;;7.58;81.03;95252.53;5030034;28;20033;-68
2021/05/14 05:34:31;;;;;;;1.85;1.20;;;9.60;78.40;;;7.67;80.16;95251.38;5026896;28;20048;-68
2021/05/14 05:36:57;;;;;;;2.75;1.50;;;9.80;77.30;;;7.79;80.07;95252.47;5010117;28;20034;-68
2021/05/14 05:39:23;;;;;;;2.40;1.55;;;10.00;77.40;;;7.92;80.19;95255.19;5026135;28;20346;-68
2021/05/14 05:41:49;;;;;;;2.63;1.80;;;10.20;77.80;;;8.08;80.16;95258.47;4993759;28;20033;-69
2021/05/14 05:44:14;;;;;;;3.72;1.98;;;10.40;76.10;;;8.22;80.50;95250.50;5026571;28;20547;-68
2021/05/14 05:46:40;;;;;;;6.68;4.25;;;10.70;76.70;;;8.38;80.47;95254.63;5011179;28;20065;-68
2021/05/14 05:49:06;;;;;;;3.95;1.80;;;10.80;75.40;;;8.53;79.57;95252.66;5009966;28;20084;-69
2021/05/14 05:51:31;;;;;;;5.55;1.33;;;11.10;75.00;;;8.70;79.71;95257.53;4992922;28;20116;-68
2021/05/14 05:53:58;;;;;;;2.10;1.00;;;11.20;73.70;;;8.86;79.49;95258.00;5010243;28;20062;-69
2021/05/14 05:56:27;;;;;;;1.88;1.00;;;11.50;73.30;;;9.04;78.76;95254.78;4993886;28;20056;-69
2021/05/14 05:58:52;;;;;;;1.92;0.88;;;11.70;72.20;;;9.23;78.71;95262.88;4993480;28;20531;-69
2021/05/14 06:01:19;;;;;;;5.35;3.55;;;12.00;70.50;;;9.37;78.26;95260.06;5009481;28;20116;-69
2021/05/14 06:03:45;;;;;;;2.78;1.30;;;12.10;70.30;;;9.58;77.21;95268.75;4977659;28;20410;-68
2021/05/14 06:06:11;;;;;;;4.43;0.95;;;12.40;67.40;;;9.72;76.76;95263.25;5009917;28;20037;-68
2021/05/14 06:08:37;;;;;;;1.98;0.90;;;12.80;66.30;;;9.88;75.93;95263.84;5026338;28;20516;-69
2021/05/14 06:11:03;;;;;;;2.30;0.93;;;13.10;64.70;;;10.06;76.43;95266.66;4993498;28;20038;-69
2021/05/14 06:13:30;;;;;;;4.75;1.10;;;13.60;65.10;;;10.25;76.66;95276.34;5009557;28;20092;-69
2021/05/14 06:15:59;;;;;;;3.58;1.73;;;13.80;63.40;;;10.43;75.12;95265.16;4993706;28;20040;-69
2021/05/14 06:18:25;;;;;;;2.42;1.27;;;13.80;63.30;;;10.62;74.95;95266.06;4994365;28;20084;-69
2021/05/14 06:20:51;;;;;;;3.00;1.33;;;14.10;61.60;;;10.83;74.33;95271.03;4993387;28;20049;-69
2021/05/14 06:23:17;;;;;;;3.45;1.98;;;14.30;61.00;;;11.01;74.45;95272.97;5009804;28;20446;-69
2021/05/14 06:25:43;;;;;;;4.15;1.75;;;14.60;60.90;;;11.21;74.59;95267.59;5025134;28;20113;-69
2021/05/14 06:28:25;;;;;;;2.17;1.40;;;14.70;60.00;;;11.43;71.04;95276.75;4999983;28;20064;-69
2021/05/14 06:30:50;;;;;;;3.20;1.05;;;15.10;59.90;;;11.64;73.59;95279.00;5023120;28;20125;-69
2021/05/14 06:33:16;;;;;;;2.05;0.93;;;15.20;60.00;;;11.86;73.44;95270.75;5008895;28;20034;-64
2021/05/14 06:35:44;;;;;;;3.17;1.58;;;15.60;58.30;;;12.07;73.29;95278.25;5006238;28;20457;-71
2021/05/14 06:38:10;;;;;;;6.18;2.40;;;15.80;56.60;;;12.25;72.48;95275.63;5009603;28;20091;-65
2021/05/14 06:40:35;;;;;;;4.88;1.92;;;16.00;56.30;;;12.46;72.47;95276.22;5010066;28;20026;-65
2021/05/14 06:43:01;;;;;;;3.45;1.30;;;16.20;55.90;;;12.60;71.27;95277.66;5009447;28;20056;-65
2021/05/14 06:45:27;;;;;;;4.00;1.40;;;16.00;55.40;;;12.72;70.73;95275.09;5008286;28;20026;-66
2021/05/14 06:47:56;;;;;;;2.58;1.00;;;16.30;55.20;;;12.86;70.11;95277.31;5009170;28;20026;-66
2021/05/14 06:50:21;;;;;;;2.03;0.90;;;16.60;53.00;;;13.05;69.25;95278.09;4992243;28;20095;-65
2021/05/14 06:52:47;;;;;;;2.72;0.90;;;16.80;52.30;;;13.18;68.77;95279.78;5008758;28;20041;-65
2021/05/14 06:55:13;;;;;;;1.88;0.70;;;16.60;53.20;;;13.27;68.81;95278.44;5008543;28;20077;-66
2021/05/14 06:57:39;;;;;;;2.53;1.20;;;16.50;53.90;;;13.35;68.52;95280.75;4997563;28;20042;-76
2021/05/14 07:00:05;;;;;;;2.10;0.85;;;16.60;54.30;;;13.49;67.06;95287.44;4996237;28;20100;-75
2021/05/14 07:02:31;;;;;;;3.72;0.95;;;16.70;52.60;;;13.61;66.61;95281.38;4994915;28;20111;-68
2021/05/14 07:04:57;;;;;;;2.72;0.75;;;16.90;52.60;;;13.83;67.64;95282.44;4992978;28;20567;-66
2021/05/14 07:07:23;;;;;;;1.75;0.90;;;17.60;53.00;;;14.06;67.41;95286.94;5000523;28;20030;-72
2021/05/14 07:09:48;;;;;;;1.30;0.80;;;18.00;50.30;;;14.39;66.41;95297.72;4992271;28;20061;-73
2021/05/14 07:12:14;;;;;;;2.28;0.98;;;18.60;49.60;;;14.68;66.91;95289.84;4992345;28;20026;-66
2021/05/14 07:14:40;;;;;;;2.75;0.70;;;18.50;47.60;;;14.83;65.71;95287.53;5012464;28;20030;-66
2021/05/14 07:17:06;;;;;;;3.65;1.00;;;18.20;47.70;;;14.95;63.56;95298.09;4984227;28;20124;-67
2021/05/14 07:19:31;;;;;;;2.40;0.70;;;18.10;47.80;;;15.06;62.68;95289.28;4993516;28;20026;-68
2021/05/14 07:21:57;;;;;;;1.17;0.60;;;18.10;47.40;;;15.14;63.29;95291.56;5009823;28;20058;-73
2021/05/14 07:24:23;;;;;;;1.90;0.65;;;18.20;49.10;;;15.29;62.30;95289.19;4980846;28;20046;-74
2021/05/14 07:26:49;;;;;;;6.30;0.60;;;18.60;48.40;;;15.49;62.60;95293.25;5015602;28;20049;-73
2021/05/14 07:29:14;;;;;;;2.03;0.70;;;18.90;47.10;;;15.71;62.83;95294.19;5008863;28;20042;-72
2021/05/14 07:31:40;;;;;;;3.55;0.90;;;19.10;46.30;;;15.83;61.47;95289.59;4998773;28;20034;-73
2021/05/14 07:34:06;;;;;;;3.42;0.85;;;19.10;46.40;;;15.96;60.25;95293.78;5014971;28;20508;-72
2021/05/14 07:36:32;;;;;;;2.25;0.80;;;18.80;45.40;;;15.97;60.14;95286.63;5017192;28;20034;-72
2021/05/14 07:38:57;;;;;;;1.73;0.63;;;18.70;45.50;;;15.93;59.45;95289.75;5018016;28;20476;-73
2021/05/14 07:41:23;;;;;;;1.85;0.85;;;18.80;46.40;;;16.04;58.98;95290.69;5016844;28;20033;-74
2021/05/14 07:43:49;;;;;;;2.22;0.90;;;18.90;44.90;;;16.18;59.54;95280.56;5014529;28;20038;-72
2021/05/14 07:46:15;;;;;;;4.07;1.00;;;19.80;45.80;;;16.48;59.23;95286.28;4998946;28;20050;-69
2021/05/14 07:48:40;;;;;;;3.25;1.00;;;20.30;44.20;;;16.79;59.66;95289.38;4998198;28;20041;-72
2021/05/14 07:51:06;;;;;;;1.40;0.52;;;20.80;43.70;;;17.10;58.83;95280.69;5015033;28;20127;-72
2021/05/14 07:53:32;;;;;;;2.47;0.60;;;21.10;41.20;;;17.36;58.17;95281.75;5013673;28;20453;-72
2021/05/14 07:55:58;;;;;;;1.35;0.60;;;20.90;42.20;;;17.48;57.38;95278.97;5009525;28;20074;-72
2021/05/14 07:58:24;;;;;;;4.75;2.17;;;20.80;41.70;;;17.69;57.20;95285.28;5014598;28;20040;-72
2021/05/14 08:00:50;;;;;;;2.03;0.55;;;21.10;41.40;;;17.89;55.73;95276.69;5014090;28;20034;-71
2021/05/14 08:03:16;;;;;;;0.95;0.40;;;21.60;40.10;;;18.15;55.73;95280.31;4998270;28;20041;-72
2021/05/14 08:05:46;;;;;;;0.52;0.30;;;21.90;39.40;;;18.31;54.84;95280.13;5014489;28;20096;-72
2021/05/14 08:08:13;;;;;;;1.10;0.45;;;21.50;37.60;;;18.38;54.38;95279.94;5014906;28;20033;-72
2021/05/14 08:10:39;;;;;;;2.38;0.50;;;21.50;39.60;;;18.47;54.27;95277.56;5013891;28;20037;-71
2021/05/14 08:13:05;;;;;;;1.55;0.63;;;22.00;40.20;;;18.66;54.65;95273.44;4997636;28;20350;-70
2021/05/14 08:15:31;;;;;;;1.75;0.50;;;22.20;38.70;;;18.88;52.79;95284.72;5025250;28;20104;-71
2021/05/14 08:17:57;;;;;;;1.17;0.40;;;22.30;36.10;;;19.04;53.14;95288.25;4998110;28;20052;-68
2021/05/14 08:20:23;;;;;;;2.17;0.68;;;22.50;37.20;;;19.20;52.67;95281.09;5014288;28;20053;-70
2021/05/14 08:22:49;;;;;;;2.47;0.57;;;22.40;37.60;;;19.44;51.96;95282.19;5013943;28;20037;-75
2021/05/14 08:25:15;;;;;;;2.08;0.50;;;22.80;36.20;;;19.70;51.20;95274.28;4997788;28;20037;-68
2021/05/14 08:27:41;;;;;;;0.77;0.40;;;23.10;35.10;;;19.91;49.44;95286.53;4997596;28;20109;-69
2021/05/14 08:30:08;;;;;;;1.73;0.47;;;23.00;35.90;;;20.03;47.91;95289.75;5014234;28;20045;-70
2021/05/14 08:32:34;;;;;;;0.77;0.40;;;23.30;35.50;;;20.15;49.02;95276.13;4997216;28;20133;-71
2021/05/14 08:34:59;;;;;;;0.70;0.30;;;23.30;34.80;;;20.23;48.07;95272.91;5013645;28;20033;-72
2021/05/14 08:37:25;;;;;;;1.65;0.80;;;23.20;34.00;;;20.26;48.02;95274.25;5010335;28;20125;-71
2021/05/14 08:39:51;;;;;;;3.78;0.80;;;23.20;34.10;;;20.22;46.87;95265.19;5010969;28;20076;-71
2021/05/14 08:42:17;;;;;;;4.57;0.70;;;22.70;35.60;;;20.32;47.43;95281.16;5010295;28;20096;-71
2021/05/14 08:44:43;;;;;;;2.55;0.70;;;23.20;35.90;;;20.48;46.66;95282.78;5010876;28;20057;-71
2021/05/14 08:47:11;;;;;;;1.52;0.50;;;23.60;34.00;;;20.45;46.33;95280.66;5010887;28;20069;-71
2021/05/14 08:49:38;;;;;;;1.48;0.75;;;23.10;34.50;;;20.37;45.27;95268.63;4994151;28;20049;-73
2021/05/14 08:52:05;;;;;;;1.08;0.60;;;23.00;34.80;;;20.36;45.61;95271.53;4994781;28;20052;-77
2021/05/14 08:54:31;;;;;;;1.70;0.70;;;23.20;34.10;;;20.38;45.03;95264.09;5011629;28;20068;-74
2021/05/14 08:56:57;;;;;;;0.85;0.40;;;23.20;33.60;;;20.30;45.55;95268.09;4995357;28;20046;-74
2021/05/14 08:59:22;;;;;;;0.93;0.60;;;22.90;35.20;;;20.27;45.67;95273.19;4994552;28;20129;-74
2021/05/14 09:01:51;;;;;;;1.38;0.45;;;23.00;35.00;;;20.22;43.17;95259.84;4994257;28;20104;-74
2021/05/14 09:04:19;;;;;;;2.22;1.30;;;22.60;34.70;;;19.96;44.97;95267.88;4994486;28;20033;-71
2021/05/14 09:06:45;;;;;;;2.25;0.60;;;22.00;36.50;;;19.62;45.05;95270.25;5010311;28;20133;-70
2021/05/14 09:09:14;;;;;;;1.00;0.50;;;21.70;36.00;;;19.68;42.88;95271.06;5010295;28;20125;-71
2021/05/14 09:11:48;;;;;;;2.13;0.60;;;22.30;35.90;;;19.77;43.22;95270.28;5010727;28;20730;-70
2021/05/14 09:14:46;;;;;;;0.80;0.43;;;22.70;34.20;;;19.94;41.67;95264.69;4994381;28;20084;-70
2021/05/14 09:17:13;;;;;;;0.55;0.32;;;23.10;34.10;;;20.19;43.92;95255.84;5016813;28;20335;-69
2021/05/14 09:19:43;;;;;;;0.52;0.30;;;23.50;33.60;;;20.24;42.80;95257.69;5009803;28;20045;-69
2021/05/14 09:22:23;;;;;;;0.68;0.40;;;22.60;34.30;;;20.13;42.56;95251.56;5009905;28;20026;-69
2021/05/14 09:24:56;;;;;;;1.83;0.50;;;23.10;35.90;;;20.47;42.25;95262.47;5009891;28;20061;-72
2021/05/14 09:27:30;;;;;;;4.65;0.68;;;24.00;35.30;;;20.71;41.55;95258.13;5009289;28;20033;-70
2021/05/14 09:30:01;;;;;;;0.68;0.30;;;24.10;33.40;;;20.71;41.59;95265.34;4988573;28;20049;-71
2021/05/14 09:32:32;;;;;;;1.95;0.70;;;23.20;33.00;;;20.58;40.89;95269.38;5005513;28;20173;-72
2021/05/14 09:35:07;;;;;;;1.20;0.65;;;22.90;34.10;;;20.65;41.34;95261.09;4977393;28;20042;-70
2021/05/14 09:37:44;;;;;;;1.15;0.50;;;23.60;32.80;;;20.93;43.29;95260.44;4997066;28;20030;-73
2021/05/14 09:40:23;;;;;;;0.50;0.30;;;24.10;33.10;;;20.99;39.97;95258.53;4994421;28;20534;-73
2021/05/14 09:42:57;;;;;;;1.25;0.40;;;24.00;32.40;;;20.98;43.32;95256.94;5009165;28;20038;-69
2021/05/14 09:45:24;;;;;;;1.10;0.40;;;24.00;33.60;;;20.95;42.18;95257.50;4994086;28;20053;-65
2021/05/14 09:48:02;;;;;;;0.65;0.30;;;23.90;31.50;;;21.08;39.25;95251.56;5009456;28;20734;-70
2021/05/14 09:50:36;;;;;;;1.17;0.30;;;23.80;31.20;;;21.26;40.00;95258.94;5009477;28;20030;-68
2021/05/14 09:53:12;;;;;;;2.22;0.60;;;24.50;32.10;;;21.44;40.16;95256.72;4993965;28;20104;-67
2021/05/14 09:55:40;;;;;;;3.63;0.50;;;24.60;32.70;;;21.43;40.97;95255.13;5009927;28;20042;-67
2021/05/14 09:58:23;;;;;;;0.95;0.35;;;24.70;30.60;;;21.76;39.05;95245.53;4993341;28;20041;-67
2021/05/14 10:00:49;;;;;;;0.73;0.40;;;25.60;30.20;;;21.96;41.67;95256.06;4994172;28;20033;-69
2021/05/14 10:03:17;;;;;;;1.10;0.40;;;25.00;29.20;;;22.14;39.08;95249.22;4993445;28;20033;-70
2021/05/14 10:05:48;;;;;;;2.08;1.00;;;25.50;29.80;;;22.56;37.44;95241.28;5008875;28;20046;-68
2021/05/14 10:08:18;;;;;;;3.75;0.60;;;26.30;28.30;;;22.89;39.47;95246.84;5009251;28;20030;-68
2021/05/14 10:10:44;;;;;;;1.88;0.40;;;26.30;27.70;;;23.10;39.69;95245.50;5008025;28;20164;-68
2021/05/14 10:13:10;;;;;;;1.05;0.30;;;26.70;28.50;;;23.08;39.71;95239.59;4976666;28;20161;-71
2021/05/14 10:19:17;;;;;;;9.48;0.80;;;25.70;30.20;;;23.38;39.48;95251.03;5002662;28;20096;-75
2021/05/14 10:21:45;;;;;;;2.15;0.30;;;27.50;28.00;;;23.58;36.94;95242.72;4975665;28;20712;-73
2021/05/14 10:24:11;;;;;;;0.68;0.40;;;26.50;28.00;;;23.75;38.77;95234.91;4993080;28;20030;-72
2021/05/14 10:26:38;;;;;;;1.58;0.40;;;27.30;26.10;;;23.85;39.02;95238.53;5008588;28;20037;-67
2021/05/14 10:29:14;;;;;;;3.28;0.50;;;27.70;27.40;;;23.86;36.11;95240.13;5008324;28;20029;-68